createdAt,value
2017-10-30T00:01:05.242Z,3.30
2017-10-30T00:03:32.694Z,3.67
2017-10-30T00:06:00.152Z,3.95
2017-10-30T00:08:27.622Z,2.90
2017-10-30T00:10:55.057Z,4.60
2017-10-30T00:13:22.523Z,9.25
2017-10-30T00:15:49.982Z,5.12
2017-10-30T00:18:17.437Z,4.15
2017-10-30T00:20:44.894Z,3.75
2017-10-30T00:23:12.349Z,3.12
2017-10-30T00:25:39.811Z,2.50
2017-10-30T00:28:07.270Z,3.42
2017-10-30T00:30:34.716Z,3.10
2017-10-30T00:33:02.270Z,4.03
2017-10-30T00:35:29.835Z,3.12
2017-10-30T00:37:57.303Z,5.00
2017-10-30T00:40:24.766Z,2.90
2017-10-30T00:42:52.234Z,3.10
2017-10-30T00:45:20.445Z,3.35
2017-10-30T00:47:47.902Z,4.00
2017-10-30T00:50:15.362Z,3.28
2017-10-30T00:52:42.814Z,4.15
2017-10-30T00:55:10.272Z,4.35
2017-10-30T00:57:37.761Z,5.25
2017-10-30T01:00:05.226Z,4.03
2017-10-30T01:02:32.686Z,3.72
2017-10-30T01:05:00.144Z,3.17
2017-10-30T01:07:27.694Z,3.40
2017-10-30T01:09:55.155Z,2.95
2017-10-30T01:12:22.611Z,3.40
2017-10-30T01:14:50.067Z,3.53
2017-10-30T01:17:17.531Z,5.07
2017-10-30T01:19:44.983Z,2.80
2017-10-30T01:22:12.426Z,3.22
2017-10-30T01:24:39.986Z,2.22
2017-10-30T01:27:07.449Z,3.10
2017-10-30T01:29:34.915Z,4.12
2017-10-30T01:32:02.366Z,4.00
2017-10-30T01:34:29.811Z,3.33
2017-10-30T01:36:57.273Z,4.07
2017-10-30T01:39:24.717Z,2.50
2017-10-30T01:41:52.192Z,2.80
2017-10-30T01:44:19.650Z,3.50
2017-10-30T01:46:47.107Z,3.40
2017-10-30T01:49:14.557Z,3.30
2017-10-30T01:51:42.015Z,2.75
2017-10-30T01:54:09.472Z,3.00
2017-10-30T01:56:37.025Z,2.90
2017-10-30T01:59:04.598Z,2.95
2017-10-30T02:01:32.058Z,4.18
2017-10-30T02:03:59.527Z,3.85
2017-10-30T02:06:27.056Z,3.70
2017-10-30T02:08:54.508Z,3.42
2017-10-30T02:11:21.961Z,4.15
2017-10-30T02:13:49.404Z,3.53
2017-10-30T02:16:16.890Z,2.70
2017-10-30T02:18:44.456Z,3.28
2017-10-30T02:21:11.905Z,2.92
2017-10-30T02:23:39.463Z,3.15
2017-10-30T02:26:06.918Z,2.85
2017-10-30T02:28:34.366Z,3.40
2017-10-30T02:31:01.939Z,3.75
2017-10-30T02:33:29.499Z,3.03
2017-10-30T02:35:56.951Z,5.03
2017-10-30T02:38:24.414Z,3.05
2017-10-30T02:40:51.867Z,3.95
2017-10-30T02:43:19.326Z,3.42
2017-10-30T02:45:46.769Z,2.80
2017-10-30T02:48:14.344Z,3.65
2017-10-30T02:50:41.799Z,2.97
2017-10-30T02:53:09.352Z,2.67
2017-10-30T02:55:36.809Z,4.43
2017-10-30T02:58:04.260Z,2.80
2017-10-30T03:00:31.715Z,3.30
2017-10-30T03:02:59.175Z,3.05
2017-10-30T03:05:26.614Z,3.95
2017-10-30T03:07:54.093Z,3.60
2017-10-30T03:10:21.657Z,4.05
2017-10-30T03:12:49.105Z,4.35
2017-10-30T03:15:16.665Z,4.70
2017-10-30T03:17:44.119Z,4.68
2017-10-30T03:20:11.577Z,3.37
2017-10-30T03:22:39.031Z,5.28
2017-10-30T03:25:06.485Z,2.37
2017-10-30T03:27:33.938Z,3.03
2017-10-30T03:30:01.390Z,3.55
2017-10-30T03:32:28.869Z,3.62
2017-10-30T03:34:56.336Z,2.75
2017-10-30T03:37:23.799Z,3.40
2017-10-30T03:39:51.343Z,3.60
2017-10-30T03:42:18.800Z,3.78
2017-10-30T03:44:46.265Z,2.70
2017-10-30T03:47:13.716Z,3.70
2017-10-30T03:49:41.224Z,3.30
2017-10-30T03:52:08.670Z,2.95
2017-10-30T03:54:36.157Z,3.92
2017-10-30T03:57:03.611Z,2.47
2017-10-30T03:59:31.063Z,2.87
2017-10-30T04:01:58.526Z,3.65
2017-10-30T04:04:25.975Z,3.10
2017-10-30T04:06:53.434Z,4.65
2017-10-30T04:09:20.892Z,2.67
2017-10-30T04:11:48.347Z,2.50
2017-10-30T04:14:15.803Z,2.75
2017-10-30T04:16:43.287Z,3.35
2017-10-30T04:19:10.734Z,3.00
2017-10-30T04:21:38.191Z,3.53
2017-10-30T04:24:05.635Z,3.17
2017-10-30T04:26:33.091Z,2.95
2017-10-30T04:29:00.561Z,5.30
2017-10-30T04:31:28.006Z,4.18
2017-10-30T04:33:55.458Z,5.18
2017-10-30T04:36:22.914Z,3.70
2017-10-30T04:38:50.363Z,3.65
2017-10-30T04:41:17.818Z,4.87
2017-10-30T04:43:45.311Z,3.25
2017-10-30T04:46:12.770Z,2.95
2017-10-30T04:48:40.228Z,4.78
2017-10-30T04:51:07.682Z,5.25
2017-10-30T04:53:35.126Z,4.03
2017-10-30T04:56:02.583Z,2.75
2017-10-30T04:58:30.034Z,2.65
2017-10-30T05:00:57.498Z,3.37
2017-10-30T05:03:24.955Z,3.47
2017-10-30T05:05:52.407Z,4.80
2017-10-30T05:08:19.875Z,4.00
2017-10-30T05:10:47.328Z,3.00
2017-10-30T05:13:14.800Z,3.67
2017-10-30T05:15:42.239Z,5.07
2017-10-30T05:18:09.697Z,3.67
2017-10-30T05:20:37.164Z,3.80
2017-10-30T05:23:04.624Z,4.35
2017-10-30T05:25:32.074Z,4.40
2017-10-30T05:27:59.535Z,3.17
2017-10-30T05:30:27.097Z,4.70
2017-10-30T05:32:54.654Z,3.55
2017-10-30T05:35:22.097Z,3.70
2017-10-30T05:37:49.670Z,4.97
2017-10-30T05:40:17.118Z,4.35
2017-10-30T05:42:44.581Z,5.15
2017-10-30T05:45:12.026Z,4.35
2017-10-30T05:47:39.490Z,4.60
2017-10-30T05:50:07.051Z,4.60
2017-10-30T05:52:34.503Z,5.30
2017-10-30T05:55:02.067Z,4.85
2017-10-30T05:57:29.522Z,6.00
2017-10-30T05:59:56.983Z,4.53
2017-10-30T06:02:24.435Z,4.90
2017-10-30T06:04:51.891Z,6.15
2017-10-30T06:07:19.344Z,4.97
2017-10-30T06:09:46.911Z,4.53
2017-10-30T06:12:14.359Z,4.75
2017-10-30T06:14:41.814Z,4.80
2017-10-30T06:17:09.271Z,4.55
2017-10-30T06:19:36.725Z,3.70
2017-10-30T06:22:04.199Z,4.65
2017-10-30T06:24:31.652Z,4.82
2017-10-30T06:26:59.110Z,5.20
2017-10-30T06:29:26.565Z,4.47
2017-10-30T06:31:54.032Z,4.87
2017-10-30T06:34:21.487Z,4.45
2017-10-30T06:36:48.934Z,4.82
2017-10-30T06:39:16.502Z,4.45
2017-10-30T06:41:43.946Z,4.07
2017-10-30T06:44:11.402Z,6.18
2017-10-30T06:46:38.850Z,4.75
2017-10-30T06:49:06.311Z,5.95
2017-10-30T06:51:33.762Z,5.60
2017-10-30T06:54:01.225Z,6.93
2017-10-30T06:56:28.695Z,5.32
2017-10-30T06:58:56.149Z,5.53
2017-10-30T07:01:23.603Z,5.45
2017-10-30T07:03:51.078Z,4.05
2017-10-30T07:06:18.527Z,4.40
2017-10-30T07:08:45.980Z,4.28
2017-10-30T07:11:13.433Z,3.25
2017-10-30T07:13:40.885Z,3.45
2017-10-30T07:16:08.344Z,3.58
2017-10-30T07:18:35.814Z,4.43
2017-10-30T07:21:03.272Z,3.72
2017-10-30T07:23:30.730Z,5.12
2017-10-30T07:25:58.177Z,3.60
2017-10-30T07:28:25.638Z,3.90
2017-10-30T07:30:53.094Z,7.10
2017-10-30T07:33:21.315Z,4.65
2017-10-30T07:35:48.827Z,4.00
2017-10-30T07:38:16.282Z,4.75
2017-10-30T07:40:43.738Z,4.03
2017-10-30T07:43:11.185Z,3.75
2017-10-30T07:45:38.642Z,4.00
2017-10-30T07:48:06.094Z,3.15
2017-10-30T07:50:33.595Z,3.70
2017-10-30T07:53:01.846Z,3.05
2017-10-30T07:55:29.394Z,2.90
2017-10-30T07:57:56.854Z,3.33
2017-10-30T08:00:24.310Z,3.40
2017-10-30T08:02:51.982Z,3.50
2017-10-30T08:05:19.434Z,4.12
2017-10-30T08:07:46.894Z,3.42
2017-10-30T08:10:14.342Z,4.03
2017-10-30T08:12:41.820Z,6.35
2017-10-30T08:15:10.082Z,4.37
2017-10-30T08:17:37.549Z,3.58
2017-10-30T08:20:05.102Z,2.65
2017-10-30T08:22:32.558Z,3.28
2017-10-30T08:25:00.010Z,3.30
2017-10-30T08:27:27.479Z,3.15
2017-10-30T08:29:55.018Z,3.62
2017-10-30T08:32:22.475Z,3.45
2017-10-30T08:34:49.938Z,3.70
2017-10-30T08:37:17.407Z,3.85
2017-10-30T08:39:45.631Z,2.97
2017-10-30T08:42:13.127Z,4.90
2017-10-30T08:44:40.580Z,3.28
2017-10-30T08:47:08.045Z,4.53
2017-10-30T08:49:35.498Z,2.80
2017-10-30T08:52:02.958Z,3.28
2017-10-30T08:54:31.187Z,3.17
2017-10-30T08:56:58.640Z,3.40
2017-10-30T08:59:26.102Z,5.18
2017-10-30T09:01:53.567Z,3.03
2017-10-30T09:04:21.054Z,4.45
2017-10-30T09:06:48.509Z,3.65
2017-10-30T09:09:15.974Z,2.75
2017-10-30T09:11:43.531Z,3.33
2017-10-30T09:14:10.990Z,3.95
2017-10-30T09:16:38.456Z,3.20
2017-10-30T09:19:05.995Z,2.78
2017-10-30T09:21:33.450Z,2.75
2017-10-30T09:24:01.122Z,3.22
2017-10-30T09:26:28.574Z,4.28
2017-10-30T09:28:56.050Z,4.37
2017-10-30T09:31:23.490Z,3.20
2017-10-30T09:33:51.043Z,3.12
2017-10-30T09:36:18.504Z,3.40
2017-10-30T09:38:45.966Z,5.47
2017-10-30T09:41:13.522Z,3.60
2017-10-30T09:43:40.978Z,3.75
2017-10-30T09:46:08.447Z,2.90
2017-10-30T09:48:35.903Z,3.00
2017-10-30T09:51:04.139Z,3.42
2017-10-30T09:53:31.589Z,2.90
2017-10-30T09:55:59.064Z,3.70
2017-10-30T09:58:26.518Z,2.12
2017-10-30T10:00:54.097Z,3.92
2017-10-30T10:03:21.557Z,2.97
2017-10-30T10:05:49.022Z,2.95
2017-10-30T10:08:16.478Z,2.87
2017-10-30T10:10:43.937Z,3.83
2017-10-30T10:13:12.169Z,3.62
2017-10-30T10:15:39.634Z,3.53
2017-10-30T10:18:07.114Z,3.10
2017-10-30T10:20:34.586Z,3.30
2017-10-30T10:23:02.818Z,3.78
2017-10-30T10:25:30.304Z,2.42
2017-10-30T10:27:57.755Z,2.80
2017-10-30T10:30:25.211Z,2.70
2017-10-30T10:32:52.674Z,3.05
2017-10-30T10:35:20.145Z,3.22
2017-10-30T10:37:48.369Z,2.85
2017-10-30T10:40:15.855Z,3.75
2017-10-30T10:42:43.319Z,2.85
2017-10-30T10:45:10.790Z,2.90
2017-10-30T10:47:38.242Z,3.22
2017-10-30T10:50:05.791Z,3.17
2017-10-30T10:52:33.251Z,4.37
2017-10-30T10:55:00.735Z,3.85
2017-10-30T10:57:28.959Z,2.70
2017-10-30T10:59:56.430Z,3.97
2017-10-30T11:02:23.890Z,2.83
2017-10-30T11:04:52.110Z,2.67
2017-10-30T11:07:19.626Z,4.18
2017-10-30T11:09:47.079Z,2.70
2017-10-30T11:12:14.541Z,3.15
2017-10-30T11:14:42.095Z,3.47
2017-10-30T11:17:09.553Z,3.35
2017-10-30T11:19:37.009Z,2.20
2017-10-30T11:22:04.471Z,2.95
2017-10-30T11:24:31.926Z,2.42
2017-10-30T11:26:59.391Z,2.95
2017-10-30T11:29:26.850Z,3.12
2017-10-30T11:31:54.399Z,4.50
2017-10-30T11:34:21.866Z,2.20
2017-10-30T11:36:49.332Z,4.30
2017-10-30T11:39:17.562Z,2.60
2017-10-30T11:41:45.042Z,3.25
2017-10-30T11:44:12.604Z,2.53
2017-10-30T11:46:40.163Z,2.25
2017-10-30T11:49:07.622Z,2.47
2017-10-30T11:51:35.099Z,2.22
2017-10-30T11:54:03.326Z,2.20
2017-10-30T11:56:30.806Z,2.53
2017-10-30T11:58:59.044Z,2.80
2017-10-30T12:01:26.506Z,3.40
2017-10-30T12:03:53.998Z,2.35
2017-10-30T12:06:21.470Z,2.55
2017-10-30T12:08:49.699Z,3.55
2017-10-30T12:11:17.191Z,2.78
2017-10-30T12:13:44.655Z,3.40
2017-10-30T12:16:12.118Z,2.47
2017-10-30T12:18:39.577Z,2.60
2017-10-30T12:21:07.838Z,2.50
2017-10-30T12:23:36.085Z,3.07
2017-10-30T12:26:03.538Z,1.97
2017-10-30T12:28:31.008Z,2.60
2017-10-30T12:30:58.471Z,2.10
2017-10-30T12:33:25.947Z,2.90
2017-10-30T12:35:53.408Z,3.75
2017-10-30T12:38:20.951Z,2.70
2017-10-30T12:40:48.416Z,4.40
2017-10-30T12:43:15.883Z,3.20
2017-10-30T12:45:43.340Z,3.00
2017-10-30T12:48:11.580Z,2.77
2017-10-30T12:50:39.044Z,2.70
2017-10-30T12:53:06.606Z,2.30
2017-10-30T12:55:35.582Z,3.20
2017-10-30T12:58:03.043Z,3.17
2017-10-30T13:00:30.523Z,3.93
2017-10-30T13:02:58.758Z,2.42
2017-10-30T13:05:26.217Z,2.50
2017-10-30T13:07:53.693Z,2.97
2017-10-30T13:10:21.149Z,2.70
2017-10-30T13:12:48.628Z,1.90
2017-10-30T13:15:16.088Z,3.70
2017-10-30T13:17:44.360Z,2.40
2017-10-30T13:20:11.818Z,3.30
2017-10-30T13:22:39.282Z,2.85
2017-10-30T13:25:07.515Z,3.03
2017-10-30T13:27:34.970Z,3.25
2017-10-30T13:30:02.439Z,3.05
2017-10-30T13:32:30.017Z,2.90
2017-10-30T13:34:57.480Z,3.95
2017-10-30T13:37:24.938Z,3.20
2017-10-30T13:39:52.409Z,3.45
2017-10-30T13:42:20.666Z,3.08
2017-10-30T13:44:48.233Z,3.15
2017-10-30T13:47:15.786Z,2.65
2017-10-30T13:49:43.267Z,3.40
2017-10-30T13:52:11.490Z,2.20
2017-10-30T13:54:38.953Z,3.40
2017-10-30T13:57:06.536Z,3.33
2017-10-30T13:59:33.998Z,3.33
2017-10-30T14:02:02.217Z,3.83
2017-10-30T14:04:29.714Z,2.97
2017-10-30T14:06:57.170Z,2.97
2017-10-30T14:09:24.641Z,3.05
2017-10-30T14:11:53.590Z,2.62
2017-10-30T14:14:21.078Z,4.03
2017-10-30T14:16:48.635Z,3.10
2017-10-30T14:19:16.099Z,3.58
2017-10-30T14:21:43.571Z,2.72
2017-10-30T14:24:11.027Z,2.20
2017-10-30T14:26:39.262Z,2.72
2017-10-30T14:29:06.714Z,2.40
2017-10-30T14:31:34.174Z,2.73
2017-10-30T14:34:01.631Z,2.20
2017-10-30T14:36:29.100Z,2.50
2017-10-30T14:38:56.554Z,3.30
2017-10-30T14:41:24.118Z,3.22
2017-10-30T14:43:51.579Z,3.28
2017-10-30T14:46:19.139Z,3.25
2017-10-30T14:48:46.591Z,3.37
2017-10-30T14:51:14.050Z,4.10
2017-10-30T14:53:41.508Z,4.50
2017-10-30T14:56:08.974Z,4.25
2017-10-30T14:58:36.420Z,3.83
2017-10-30T15:01:03.982Z,3.83
2017-10-30T15:03:32.955Z,5.72
2017-10-30T15:06:00.428Z,3.92
2017-10-30T15:08:27.883Z,4.70
2017-10-30T15:10:55.343Z,4.30
2017-10-30T15:13:22.789Z,5.07
2017-10-30T15:15:50.246Z,2.75
2017-10-30T15:18:17.813Z,5.55
2017-10-30T15:20:45.288Z,4.10
2017-10-30T15:23:12.740Z,4.60
2017-10-30T15:25:40.202Z,3.72
2017-10-30T15:28:07.658Z,4.82
2017-10-30T15:30:35.126Z,4.20
2017-10-30T15:33:03.355Z,4.25
2017-10-30T15:35:30.810Z,4.75
2017-10-30T15:37:58.272Z,3.83
2017-10-30T15:40:25.738Z,6.87
2017-10-30T15:42:53.199Z,3.78
2017-10-30T15:45:20.662Z,5.65
2017-10-30T15:47:48.126Z,5.28
2017-10-30T15:50:15.680Z,5.20
2017-10-30T15:52:43.142Z,4.90
2017-10-30T15:55:10.606Z,4.72
2017-10-30T15:57:38.065Z,3.67
2017-10-30T16:00:05.519Z,5.62
2017-10-30T16:02:33.750Z,4.50
2017-10-30T16:05:01.202Z,6.03
2017-10-30T16:07:28.666Z,5.75
2017-10-30T16:09:56.122Z,4.70
2017-10-30T16:12:23.614Z,6.53
2017-10-30T16:14:51.066Z,6.65
2017-10-30T16:17:18.535Z,7.05
2017-10-30T16:19:46.178Z,6.10
2017-10-30T16:22:13.634Z,5.70
2017-10-30T16:24:42.616Z,15.52
2017-10-30T16:27:10.074Z,10.48
2017-10-30T16:29:37.539Z,12.00
2017-10-30T16:32:04.990Z,9.43
2017-10-30T16:34:32.460Z,6.95
2017-10-30T16:36:59.920Z,5.00
2017-10-30T16:39:27.376Z,5.20
2017-10-30T16:41:54.834Z,6.15
2017-10-30T16:44:22.387Z,4.20
2017-10-30T16:46:50.875Z,5.85
2017-10-30T16:49:18.332Z,4.60
2017-10-30T16:51:45.794Z,5.90
2017-10-30T16:54:14.042Z,5.28
2017-10-30T16:56:41.504Z,6.87
2017-10-30T16:59:08.966Z,7.20
2017-10-30T17:01:36.425Z,6.28
2017-10-30T17:04:03.906Z,6.37
2017-10-30T17:06:32.154Z,6.22
2017-10-30T17:08:59.619Z,4.80
2017-10-30T17:11:27.086Z,5.93
2017-10-30T17:13:54.546Z,8.13
2017-10-30T17:16:22.086Z,5.35
2017-10-30T17:18:49.543Z,6.40
2017-10-30T17:21:17.006Z,5.85
2017-10-30T17:23:44.463Z,6.40
2017-10-30T17:26:11.922Z,5.85
2017-10-30T17:28:39.375Z,8.25
2017-10-30T17:31:06.833Z,8.73
2017-10-30T17:33:34.294Z,8.15
2017-10-30T17:36:01.947Z,8.57
2017-10-30T17:38:29.405Z,7.28
2017-10-30T17:40:56.876Z,6.25
2017-10-30T17:43:24.330Z,8.63
2017-10-30T17:45:51.790Z,11.12
2017-10-30T17:48:20.021Z,16.25
2017-10-30T17:50:47.504Z,13.50
2017-10-30T17:53:14.958Z,13.70
2017-10-30T17:55:42.428Z,15.30
2017-10-30T17:58:10.698Z,13.90
2017-10-30T18:00:38.163Z,15.95
2017-10-30T18:03:06.384Z,14.23
2017-10-30T18:05:33.850Z,20.73
2017-10-30T18:08:01.339Z,24.33
2017-10-30T18:10:28.818Z,21.77
2017-10-30T18:12:57.042Z,17.55
2017-10-30T18:15:24.503Z,14.13
2017-10-30T18:17:51.966Z,14.93
2017-10-30T18:20:20.186Z,10.13
2017-10-30T18:22:48.412Z,9.27
2017-10-30T18:25:15.886Z,11.68
2017-10-30T18:27:44.319Z,11.57
2017-10-30T18:30:11.778Z,10.05
2017-10-30T18:32:39.248Z,11.40
2017-10-30T18:35:06.701Z,9.55
2017-10-30T18:37:34.161Z,11.90
2017-10-30T18:40:01.658Z,12.02
2017-10-30T18:42:29.194Z,12.80
2017-10-30T18:44:56.659Z,11.95
2017-10-30T18:47:24.122Z,13.98
2017-10-30T18:49:51.581Z,11.85
2017-10-30T18:52:19.151Z,13.93
2017-10-30T18:54:46.601Z,13.93
2017-10-30T18:57:14.063Z,14.75
2017-10-30T18:59:41.519Z,18.23
2017-10-30T19:02:09.942Z,17.62
2017-10-30T19:04:37.399Z,16.80
2017-10-30T19:07:04.855Z,15.07
2017-10-30T19:09:32.310Z,14.70
2017-10-30T19:11:59.818Z,12.90
2017-10-30T19:14:27.270Z,13.98
2017-10-30T19:16:54.743Z,15.20
2017-10-30T19:19:22.195Z,13.02
2017-10-30T19:21:49.663Z,14.60
2017-10-30T19:24:17.123Z,14.80
2017-10-30T19:26:44.584Z,17.42
2017-10-30T19:29:12.034Z,16.00
2017-10-30T19:31:39.499Z,17.65
2017-10-30T19:34:07.759Z,16.42
2017-10-30T19:36:35.230Z,13.55
2017-10-30T19:39:03.486Z,15.77
2017-10-30T19:41:30.954Z,21.87
2017-10-30T19:43:58.412Z,17.70
2017-10-30T19:46:25.878Z,17.00
2017-10-30T19:48:53.330Z,16.25
2017-10-30T19:51:21.596Z,15.30
2017-10-30T19:53:49.063Z,20.25
2017-10-30T19:56:16.511Z,17.50
2017-10-30T19:58:43.978Z,18.42
2017-10-30T20:01:12.206Z,16.90
2017-10-30T20:03:39.666Z,22.37
2017-10-30T20:06:12.702Z,17.90
2017-10-30T20:08:46.682Z,15.88
2017-10-30T20:11:19.866Z,14.93
2017-10-30T20:13:47.430Z,13.77
2017-10-30T20:16:14.999Z,12.23
2017-10-30T20:18:42.471Z,11.45
2017-10-30T20:21:09.930Z,17.20
2017-10-30T20:23:38.163Z,11.55
2017-10-30T20:26:05.638Z,12.60
2017-10-30T20:28:33.210Z,12.75
2017-10-30T20:31:00.663Z,12.05
2017-10-30T20:33:28.130Z,11.68
2017-10-30T20:35:55.594Z,11.35
2017-10-30T20:38:23.850Z,14.02
2017-10-30T20:40:51.400Z,12.52
2017-10-30T20:43:18.850Z,11.18
2017-10-30T20:45:46.419Z,11.20
2017-10-30T20:48:13.878Z,11.80
2017-10-30T20:50:41.392Z,14.82
2017-10-30T20:53:08.850Z,12.35
2017-10-30T20:55:36.314Z,11.35
2017-10-30T20:58:03.770Z,10.88
2017-10-30T21:00:31.239Z,12.63
2017-10-30T21:02:58.696Z,10.80
2017-10-30T21:05:26.178Z,12.30
2017-10-30T21:07:53.638Z,10.45
2017-10-30T21:10:21.862Z,11.88
2017-10-30T21:12:49.372Z,12.27
2017-10-30T21:15:16.831Z,10.20
2017-10-30T21:17:44.283Z,9.70
2017-10-30T21:20:11.743Z,9.98
2017-10-30T21:22:39.199Z,10.43
2017-10-30T21:25:06.659Z,10.02
2017-10-30T21:27:34.119Z,9.55
2017-10-30T21:30:01.595Z,9.85
2017-10-30T21:32:29.809Z,9.68
2017-10-30T21:34:57.259Z,9.57
2017-10-30T21:37:24.761Z,10.73
2017-10-30T21:39:52.206Z,9.13
2017-10-30T21:42:19.663Z,10.63
2017-10-30T21:44:47.114Z,10.70
2017-10-30T21:47:14.584Z,12.18
2017-10-30T21:49:42.039Z,17.27
2017-10-30T21:52:09.519Z,13.90
2017-10-30T21:54:37.734Z,13.15
2017-10-30T21:57:05.198Z,14.18
2017-10-30T22:02:35.133Z,14.82
2017-10-30T22:05:02.588Z,16.30
2017-10-30T22:07:30.047Z,14.50
2017-10-30T22:09:57.499Z,12.70
2017-10-30T22:12:24.998Z,16.90
2017-10-30T22:14:52.543Z,12.35
2017-10-30T22:17:20.002Z,13.30
2017-10-30T22:19:47.456Z,13.15
2017-10-30T22:22:14.918Z,13.57
2017-10-30T22:24:42.373Z,14.07
2017-10-30T22:27:09.843Z,14.32
2017-10-30T22:29:37.299Z,16.62
2017-10-30T22:32:04.763Z,16.80
2017-10-30T22:34:33.016Z,17.55
2017-10-30T22:37:00.479Z,16.90
2017-10-30T22:39:27.934Z,16.87
2017-10-30T22:41:55.394Z,18.33
2017-10-30T22:44:22.850Z,18.83
2017-10-30T22:46:50.315Z,18.62
2017-10-30T22:49:17.854Z,20.90
2017-10-30T22:51:45.333Z,21.85
2017-10-30T22:54:13.596Z,21.35
2017-10-30T22:56:41.147Z,18.35
2017-10-30T22:59:08.619Z,19.75
2017-10-30T23:01:36.074Z,20.70
2017-10-30T23:04:03.531Z,19.15
2017-10-30T23:06:30.984Z,18.15
2017-10-30T23:08:58.447Z,18.48
2017-10-30T23:11:25.996Z,19.00
2017-10-30T23:13:53.458Z,18.75
2017-10-30T23:16:20.922Z,18.77
2017-10-30T23:18:49.147Z,17.55
2017-10-30T23:21:16.611Z,18.33
2017-10-30T23:23:44.058Z,18.05
2017-10-30T23:26:11.521Z,17.15
2017-10-30T23:28:38.987Z,16.23
2017-10-30T23:31:06.473Z,16.80
2017-10-30T23:33:33.938Z,13.55
2017-10-30T23:36:01.395Z,15.88
2017-10-30T23:38:28.945Z,14.98
2017-10-30T23:40:56.406Z,16.12
2017-10-30T23:43:23.959Z,14.40
2017-10-30T23:45:51.429Z,14.18
2017-10-30T23:48:18.892Z,14.18
2017-10-30T23:50:46.337Z,13.75
2017-10-30T23:53:13.803Z,15.30
2017-10-30T23:55:41.253Z,14.63
2017-10-30T23:58:08.795Z,15.15
